sensor_id;sensor_type;location;lat;lon;timestamp;P1;durP1;ratioP1;P2;durP2;ratioP2
79410;SDS011;69635;50.964;6.948;2023-08-24T00:01:48;8.68;;;4.53;;
79410;SDS011;69635;50.964;6.948;2023-08-24T00:04:14;9.20;;;4.47;;
79410;SDS011;69635;50.964;6.948;2023-08-24T00:06:39;6.83;;;4.07;;
79410;SDS011;69635;50.964;6.948;2023-08-24T00:09:04;9.52;;;4.38;;
79410;SDS011;69635;50.964;6.948;2023-08-24T00:11:30;7.88;;;3.50;;
79410;SDS011;69635;50.964;6.948;2023-08-24T00:13:56;9.13;;;3.37;;
79410;SDS011;69635;50.964;6.948;2023-08-24T00:16:21;6.00;;;4.03;;
79410;SDS011;69635;50.964;6.948;2023-08-24T00:18:46;5.22;;;3.40;;
79410;SDS011;69635;50.964;6.948;2023-08-24T00:21:15;9.40;;;3.45;;
79410;SDS011;69635;50.964;6.948;2023-08-24T00:23:47;8.68;;;3.50;;
79410;SDS011;69635;50.964;6.948;2023-08-24T00:26:13;8.85;;;3.20;;
79410;SDS011;69635;50.964;6.948;2023-08-24T00:28:38;8.80;;;4.13;;
79410;SDS011;69635;50.964;6.948;2023-08-24T00:31:03;9.33;;;3.40;;
79410;SDS011;69635;50.964;6.948;2023-08-24T00:33:28;5.17;;;2.97;;
79410;SDS011;69635;50.964;6.948;2023-08-24T00:35:58;7.13;;;3.15;;
79410;SDS011;69635;50.964;6.948;2023-08-24T00:38:24;5.72;;;2.83;;
79410;SDS011;69635;50.964;6.948;2023-08-24T00:40:50;8.40;;;3.60;;
79410;SDS011;69635;50.964;6.948;2023-08-24T00:43:17;7.72;;;3.22;;
79410;SDS011;69635;50.964;6.948;2023-08-24T00:45:47;5.35;;;3.22;;
79410;SDS011;69635;50.964;6.948;2023-08-24T00:48:12;6.67;;;2.87;;
79410;SDS011;69635;50.964;6.948;2023-08-24T00:50:37;5.90;;;3.10;;
79410;SDS011;69635;50.964;6.948;2023-08-24T00:53:02;8.13;;;3.20;;
79410;SDS011;69635;50.964;6.948;2023-08-24T00:55:28;5.55;;;3.03;;
79410;SDS011;69635;50.964;6.948;2023-08-24T00:57:53;4.73;;;3.03;;
79410;SDS011;69635;50.964;6.948;2023-08-24T01:00:18;5.03;;;2.58;;
79410;SDS011;69635;50.964;6.948;2023-08-24T01:02:44;4.35;;;2.70;;
79410;SDS011;69635;50.964;6.948;2023-08-24T01:05:09;4.38;;;2.70;;
79410;SDS011;69635;50.964;6.948;2023-08-24T01:07:35;5.27;;;3.07;;
79410;SDS011;69635;50.964;6.948;2023-08-24T01:10:02;7.70;;;2.70;;
79410;SDS011;69635;50.964;6.948;2023-08-24T01:15:25;5.18;;;2.95;;
79410;SDS011;69635;50.964;6.948;2023-08-24T01:17:52;6.18;;;2.72;;
79410;SDS011;69635;50.964;6.948;2023-08-24T01:20:17;4.97;;;2.50;;
79410;SDS011;69635;50.964;6.948;2023-08-24T01:27:46;7.70;;;2.97;;
79410;SDS011;69635;50.964;6.948;2023-08-24T01:30:12;7.05;;;3.20;;
79410;SDS011;69635;50.964;6.948;2023-08-24T01:32:38;3.97;;;2.70;;
79410;SDS011;69635;50.964;6.948;2023-08-24T01:35:05;6.27;;;2.70;;
79410;SDS011;69635;50.964;6.948;2023-08-24T01:37:34;6.45;;;3.00;;
79410;SDS011;69635;50.964;6.948;2023-08-24T01:40:02;5.70;;;2.67;;
79410;SDS011;69635;50.964;6.948;2023-08-24T01:45:17;5.43;;;2.60;;
79410;SDS011;69635;50.964;6.948;2023-08-24T01:47:44;6.03;;;2.78;;
79410;SDS011;69635;50.964;6.948;2023-08-24T01:50:10;5.80;;;2.92;;
79410;SDS011;69635;50.964;6.948;2023-08-24T01:52:35;5.75;;;2.67;;
79410;SDS011;69635;50.964;6.948;2023-08-24T01:55:01;5.35;;;3.22;;
79410;SDS011;69635;50.964;6.948;2023-08-24T01:57:26;4.90;;;2.77;;
79410;SDS011;69635;50.964;6.948;2023-08-24T01:59:51;5.32;;;3.00;;
79410;SDS011;69635;50.964;6.948;2023-08-24T02:02:17;5.80;;;3.50;;
79410;SDS011;69635;50.964;6.948;2023-08-24T02:04:42;9.30;;;3.40;;
79410;SDS011;69635;50.964;6.948;2023-08-24T02:07:07;5.70;;;3.15;;
79410;SDS011;69635;50.964;6.948;2023-08-24T02:09:33;6.13;;;3.53;;
79410;SDS011;69635;50.964;6.948;2023-08-24T02:11:58;7.00;;;3.40;;
79410;SDS011;69635;50.964;6.948;2023-08-24T02:14:23;4.93;;;2.83;;
79410;SDS011;69635;50.964;6.948;2023-08-24T02:16:49;8.07;;;3.23;;
79410;SDS011;69635;50.964;6.948;2023-08-24T02:19:14;6.37;;;3.30;;
79410;SDS011;69635;50.964;6.948;2023-08-24T02:21:39;7.63;;;3.15;;
79410;SDS011;69635;50.964;6.948;2023-08-24T02:24:04;5.20;;;3.27;;
79410;SDS011;69635;50.964;6.948;2023-08-24T02:26:30;5.05;;;3.05;;
79410;SDS011;69635;50.964;6.948;2023-08-24T02:28:58;5.95;;;3.00;;
79410;SDS011;69635;50.964;6.948;2023-08-24T02:33:49;5.93;;;3.20;;
79410;SDS011;69635;50.964;6.948;2023-08-24T02:36:14;7.25;;;3.03;;
79410;SDS011;69635;50.964;6.948;2023-08-24T02:38:40;6.00;;;3.20;;
79410;SDS011;69635;50.964;6.948;2023-08-24T02:41:06;3.90;;;2.70;;
79410;SDS011;69635;50.964;6.948;2023-08-24T02:43:32;5.47;;;3.40;;
79410;SDS011;69635;50.964;6.948;2023-08-24T02:46:01;7.40;;;3.03;;
79410;SDS011;69635;50.964;6.948;2023-08-24T02:48:28;7.13;;;3.40;;
79410;SDS011;69635;50.964;6.948;2023-08-24T02:50:57;7.27;;;3.43;;
79410;SDS011;69635;50.964;6.948;2023-08-24T02:53:22;4.63;;;3.35;;
79410;SDS011;69635;50.964;6.948;2023-08-24T02:55:47;9.05;;;3.50;;
79410;SDS011;69635;50.964;6.948;2023-08-24T02:58:12;10.87;;;3.80;;
79410;SDS011;69635;50.964;6.948;2023-08-24T03:00:38;5.80;;;3.07;;
79410;SDS011;69635;50.964;6.948;2023-08-24T03:03:03;8.98;;;3.10;;
79410;SDS011;69635;50.964;6.948;2023-08-24T03:05:31;6.80;;;3.38;;
79410;SDS011;69635;50.964;6.948;2023-08-24T03:07:56;8.55;;;3.25;;
79410;SDS011;69635;50.964;6.948;2023-08-24T03:10:21;5.27;;;3.03;;
79410;SDS011;69635;50.964;6.948;2023-08-24T03:12:46;4.87;;;3.40;;
79410;SDS011;69635;50.964;6.948;2023-08-24T03:15:12;4.77;;;2.97;;
79410;SDS011;69635;50.964;6.948;2023-08-24T03:17:37;5.43;;;3.10;;
79410;SDS011;69635;50.964;6.948;2023-08-24T03:20:02;5.57;;;3.37;;
79410;SDS011;69635;50.964;6.948;2023-08-24T03:22:28;5.75;;;3.20;;
79410;SDS011;69635;50.964;6.948;2023-08-24T03:24:53;6.37;;;3.43;;
79410;SDS011;69635;50.964;6.948;2023-08-24T03:27:18;5.70;;;3.20;;
79410;SDS011;69635;50.964;6.948;2023-08-24T03:29:43;5.07;;;3.00;;
79410;SDS011;69635;50.964;6.948;2023-08-24T03:32:09;4.75;;;2.72;;
79410;SDS011;69635;50.964;6.948;2023-08-24T03:34:34;5.33;;;3.10;;
79410;SDS011;69635;50.964;6.948;2023-08-24T03:36:59;5.93;;;3.50;;
79410;SDS011;69635;50.964;6.948;2023-08-24T03:39:24;8.95;;;4.53;;
79410;SDS011;69635;50.964;6.948;2023-08-24T03:41:50;4.97;;;2.70;;
79410;SDS011;69635;50.964;6.948;2023-08-24T03:44:15;5.67;;;3.30;;
79410;SDS011;69635;50.964;6.948;2023-08-24T03:46:40;4.50;;;3.20;;
79410;SDS011;69635;50.964;6.948;2023-08-24T03:49:05;6.53;;;3.27;;
79410;SDS011;69635;50.964;6.948;2023-08-24T03:51:31;6.83;;;3.30;;
79410;SDS011;69635;50.964;6.948;2023-08-24T03:53:56;4.72;;;3.20;;
79410;SDS011;69635;50.964;6.948;2023-08-24T03:56:22;7.53;;;3.30;;
79410;SDS011;69635;50.964;6.948;2023-08-24T03:58:47;5.53;;;3.00;;
79410;SDS011;69635;50.964;6.948;2023-08-24T04:01:12;4.00;;;2.90;;
79410;SDS011;69635;50.964;6.948;2023-08-24T04:03:37;7.60;;;3.17;;
79410;SDS011;69635;50.964;6.948;2023-08-24T04:06:03;7.18;;;3.28;;
79410;SDS011;69635;50.964;6.948;2023-08-24T04:08:28;6.20;;;3.47;;
79410;SDS011;69635;50.964;6.948;2023-08-24T04:10:53;5.73;;;3.83;;
79410;SDS011;69635;50.964;6.948;2023-08-24T04:13:19;6.07;;;2.90;;
79410;SDS011;69635;50.964;6.948;2023-08-24T04:15:44;6.72;;;3.05;;
79410;SDS011;69635;50.964;6.948;2023-08-24T04:18:09;5.90;;;3.03;;
79410;SDS011;69635;50.964;6.948;2023-08-24T04:20:36;4.72;;;2.88;;
79410;SDS011;69635;50.964;6.948;2023-08-24T04:23:01;6.32;;;3.10;;
79410;SDS011;69635;50.964;6.948;2023-08-24T04:25:27;5.95;;;3.50;;
79410;SDS011;69635;50.964;6.948;2023-08-24T04:27:52;5.13;;;3.30;;
79410;SDS011;69635;50.964;6.948;2023-08-24T04:30:17;8.55;;;3.47;;
79410;SDS011;69635;50.964;6.948;2023-08-24T04:32:42;4.25;;;2.97;;
79410;SDS011;69635;50.964;6.948;2023-08-24T04:35:08;6.15;;;3.50;;
79410;SDS011;69635;50.964;6.948;2023-08-24T04:37:33;5.95;;;3.38;;
79410;SDS011;69635;50.964;6.948;2023-08-24T04:39:58;5.43;;;3.50;;
79410;SDS011;69635;50.964;6.948;2023-08-24T04:42:24;4.90;;;3.03;;
79410;SDS011;69635;50.964;6.948;2023-08-24T04:44:50;7.50;;;3.30;;
79410;SDS011;69635;50.964;6.948;2023-08-24T04:47:15;7.97;;;3.33;;
79410;SDS011;69635;50.964;6.948;2023-08-24T04:49:41;5.87;;;3.37;;
79410;SDS011;69635;50.964;6.948;2023-08-24T04:52:06;6.70;;;3.58;;
79410;SDS011;69635;50.964;6.948;2023-08-24T04:54:32;6.32;;;3.70;;
79410;SDS011;69635;50.964;6.948;2023-08-24T04:56:57;7.50;;;4.00;;
79410;SDS011;69635;50.964;6.948;2023-08-24T04:59:23;9.88;;;4.20;;
79410;SDS011;69635;50.964;6.948;2023-08-24T05:01:48;7.65;;;4.20;;
79410;SDS011;69635;50.964;6.948;2023-08-24T05:04:13;8.32;;;4.55;;
79410;SDS011;69635;50.964;6.948;2023-08-24T05:06:39;8.93;;;4.53;;
79410;SDS011;69635;50.964;6.948;2023-08-24T05:09:04;12.18;;;5.28;;
79410;SDS011;69635;50.964;6.948;2023-08-24T05:11:29;7.43;;;4.83;;
79410;SDS011;69635;50.964;6.948;2023-08-24T05:13:55;11.88;;;5.35;;
79410;SDS011;69635;50.964;6.948;2023-08-24T05:16:21;7.40;;;4.32;;
79410;SDS011;69635;50.964;6.948;2023-08-24T05:18:46;8.18;;;4.60;;
79410;SDS011;69635;50.964;6.948;2023-08-24T05:21:12;9.05;;;5.20;;
79410;SDS011;69635;50.964;6.948;2023-08-24T05:23:37;7.40;;;4.80;;
79410;SDS011;69635;50.964;6.948;2023-08-24T05:26:02;8.23;;;4.73;;
79410;SDS011;69635;50.964;6.948;2023-08-24T05:28:29;8.65;;;4.80;;
79410;SDS011;69635;50.964;6.948;2023-08-24T05:30:55;8.52;;;4.53;;
79410;SDS011;69635;50.964;6.948;2023-08-24T05:33:21;10.77;;;4.90;;
79410;SDS011;69635;50.964;6.948;2023-08-24T05:35:46;10.15;;;5.30;;
79410;SDS011;69635;50.964;6.948;2023-08-24T05:38:12;8.70;;;5.47;;
79410;SDS011;69635;50.964;6.948;2023-08-24T05:40:37;11.80;;;5.35;;
79410;SDS011;69635;50.964;6.948;2023-08-24T05:43:04;9.82;;;4.95;;
79410;SDS011;69635;50.964;6.948;2023-08-24T05:45:29;8.98;;;5.75;;
79410;SDS011;69635;50.964;6.948;2023-08-24T05:47:54;8.03;;;4.60;;
79410;SDS011;69635;50.964;6.948;2023-08-24T05:50:21;8.30;;;5.13;;
79410;SDS011;69635;50.964;6.948;2023-08-24T05:52:46;6.85;;;4.50;;
79410;SDS011;69635;50.964;6.948;2023-08-24T05:55:12;10.67;;;5.30;;
79410;SDS011;69635;50.964;6.948;2023-08-24T05:57:37;8.40;;;4.50;;
79410;SDS011;69635;50.964;6.948;2023-08-24T06:00:03;6.47;;;4.37;;
79410;SDS011;69635;50.964;6.948;2023-08-24T06:02:29;8.98;;;5.00;;
79410;SDS011;69635;50.964;6.948;2023-08-24T06:04:54;7.80;;;4.68;;
79410;SDS011;69635;50.964;6.948;2023-08-24T06:07:22;8.97;;;5.17;;
79410;SDS011;69635;50.964;6.948;2023-08-24T06:09:47;7.15;;;4.82;;
79410;SDS011;69635;50.964;6.948;2023-08-24T06:12:13;7.57;;;4.77;;
79410;SDS011;69635;50.964;6.948;2023-08-24T06:14:38;11.23;;;5.10;;
79410;SDS011;69635;50.964;6.948;2023-08-24T06:17:03;10.00;;;5.47;;
79410;SDS011;69635;50.964;6.948;2023-08-24T06:19:28;15.40;;;5.60;;
79410;SDS011;69635;50.964;6.948;2023-08-24T06:21:55;8.60;;;5.20;;
79410;SDS011;69635;50.964;6.948;2023-08-24T06:27:07;7.95;;;4.88;;
79410;SDS011;69635;50.964;6.948;2023-08-24T06:29:32;6.82;;;4.10;;
79410;SDS011;69635;50.964;6.948;2023-08-24T06:31:58;8.23;;;4.38;;
79410;SDS011;69635;50.964;6.948;2023-08-24T06:34:33;5.77;;;3.77;;
79410;SDS011;69635;50.964;6.948;2023-08-24T06:37:05;7.78;;;3.75;;
79410;SDS011;69635;50.964;6.948;2023-08-24T06:39:30;5.20;;;3.70;;
79410;SDS011;69635;50.964;6.948;2023-08-24T06:41:57;3.97;;;3.33;;
79410;SDS011;69635;50.964;6.948;2023-08-24T06:44:23;6.25;;;3.03;;
79410;SDS011;69635;50.964;6.948;2023-08-24T06:46:51;4.85;;;3.53;;
79410;SDS011;69635;50.964;6.948;2023-08-24T06:49:16;6.57;;;3.70;;
79410;SDS011;69635;50.964;6.948;2023-08-24T06:51:41;6.93;;;4.00;;
79410;SDS011;69635;50.964;6.948;2023-08-24T06:54:06;6.67;;;3.27;;
79410;SDS011;69635;50.964;6.948;2023-08-24T06:56:32;6.43;;;3.92;;
79410;SDS011;69635;50.964;6.948;2023-08-24T06:59:00;4.90;;;3.65;;
79410;SDS011;69635;50.964;6.948;2023-08-24T07:01:26;6.88;;;3.47;;
79410;SDS011;69635;50.964;6.948;2023-08-24T07:03:54;3.97;;;3.15;;
79410;SDS011;69635;50.964;6.948;2023-08-24T07:06:25;4.00;;;3.03;;
79410;SDS011;69635;50.964;6.948;2023-08-24T07:08:53;5.22;;;3.33;;
79410;SDS011;69635;50.964;6.948;2023-08-24T07:11:21;4.82;;;3.00;;
79410;SDS011;69635;50.964;6.948;2023-08-24T07:14:09;6.03;;;3.42;;
79410;SDS011;69635;50.964;6.948;2023-08-24T07:16:40;7.07;;;3.00;;
79410;SDS011;69635;50.964;6.948;2023-08-24T07:19:33;3.97;;;2.70;;
79410;SDS011;69635;50.964;6.948;2023-08-24T07:22:25;7.95;;;3.10;;
79410;SDS011;69635;50.964;6.948;2023-08-24T07:25:22;6.18;;;2.90;;
79410;SDS011;69635;50.964;6.948;2023-08-24T07:27:48;7.93;;;2.88;;
79410;SDS011;69635;50.964;6.948;2023-08-24T07:30:22;5.47;;;2.85;;
79410;SDS011;69635;50.964;6.948;2023-08-24T07:32:51;4.03;;;2.60;;
79410;SDS011;69635;50.964;6.948;2023-08-24T07:35:19;4.55;;;2.58;;
79410;SDS011;69635;50.964;6.948;2023-08-24T07:37:46;3.53;;;2.53;;
79410;SDS011;69635;50.964;6.948;2023-08-24T07:40:13;7.63;;;2.67;;
79410;SDS011;69635;50.964;6.948;2023-08-24T07:42:54;5.03;;;2.35;;
79410;SDS011;69635;50.964;6.948;2023-08-24T07:45:24;4.63;;;2.20;;
79410;SDS011;69635;50.964;6.948;2023-08-24T07:47:50;4.38;;;2.22;;
79410;SDS011;69635;50.964;6.948;2023-08-24T07:50:15;4.47;;;2.67;;
79410;SDS011;69635;50.964;6.948;2023-08-24T07:52:41;4.43;;;2.40;;
79410;SDS011;69635;50.964;6.948;2023-08-24T07:55:07;6.22;;;2.75;;
79410;SDS011;69635;50.964;6.948;2023-08-24T07:57:33;2.90;;;2.22;;
79410;SDS011;69635;50.964;6.948;2023-08-24T07:59:59;3.55;;;2.53;;
79410;SDS011;69635;50.964;6.948;2023-08-24T08:02:24;4.85;;;2.33;;
79410;SDS011;69635;50.964;6.948;2023-08-24T08:04:50;3.97;;;2.60;;
79410;SDS011;69635;50.964;6.948;2023-08-24T08:07:16;4.75;;;2.55;;
79410;SDS011;69635;50.964;6.948;2023-08-24T08:09:42;7.32;;;2.88;;
79410;SDS011;69635;50.964;6.948;2023-08-24T08:12:07;4.97;;;2.80;;
79410;SDS011;69635;50.964;6.948;2023-08-24T08:14:33;5.95;;;2.60;;
79410;SDS011;69635;50.964;6.948;2023-08-24T08:16:58;4.10;;;2.22;;
79410;SDS011;69635;50.964;6.948;2023-08-24T08:19:24;5.25;;;2.63;;
79410;SDS011;69635;50.964;6.948;2023-08-24T08:21:53;4.10;;;2.28;;
79410;SDS011;69635;50.964;6.948;2023-08-24T08:24:18;3.58;;;2.42;;
79410;SDS011;69635;50.964;6.948;2023-08-24T08:26:43;5.70;;;3.22;;
79410;SDS011;69635;50.964;6.948;2023-08-24T08:29:09;3.33;;;2.40;;
79410;SDS011;69635;50.964;6.948;2023-08-24T08:34:48;5.40;;;2.42;;
79410;SDS011;69635;50.964;6.948;2023-08-24T08:37:32;5.82;;;2.75;;
79410;SDS011;69635;50.964;6.948;2023-08-24T08:39:58;4.07;;;2.08;;
79410;SDS011;69635;50.964;6.948;2023-08-24T08:42:24;4.55;;;2.67;;
79410;SDS011;69635;50.964;6.948;2023-08-24T08:44:49;3.75;;;2.15;;
79410;SDS011;69635;50.964;6.948;2023-08-24T08:47:15;5.47;;;2.08;;
79410;SDS011;69635;50.964;6.948;2023-08-24T08:49:41;4.72;;;2.13;;
79410;SDS011;69635;50.964;6.948;2023-08-24T08:52:07;3.92;;;2.80;;
79410;SDS011;69635;50.964;6.948;2023-08-24T08:54:32;5.43;;;2.67;;
79410;SDS011;69635;50.964;6.948;2023-08-24T08:57:00;3.15;;;2.22;;
79410;SDS011;69635;50.964;6.948;2023-08-24T08:59:27;4.55;;;2.40;;
79410;SDS011;69635;50.964;6.948;2023-08-24T09:01:58;5.18;;;2.63;;
79410;SDS011;69635;50.964;6.948;2023-08-24T09:04:33;4.57;;;2.45;;
79410;SDS011;69635;50.964;6.948;2023-08-24T09:07:15;4.82;;;2.40;;
79410;SDS011;69635;50.964;6.948;2023-08-24T09:09:53;3.78;;;2.58;;
79410;SDS011;69635;50.964;6.948;2023-08-24T09:12:24;3.80;;;2.33;;
79410;SDS011;69635;50.964;6.948;2023-08-24T09:14:49;4.50;;;2.55;;
79410;SDS011;69635;50.964;6.948;2023-08-24T09:17:21;5.53;;;2.53;;
79410;SDS011;69635;50.964;6.948;2023-08-24T09:19:50;3.30;;;2.35;;
79410;SDS011;69635;50.964;6.948;2023-08-24T09:22:16;6.07;;;2.50;;
79410;SDS011;69635;50.964;6.948;2023-08-24T09:30:52;4.07;;;2.35;;
79410;SDS011;69635;50.964;6.948;2023-08-24T09:33:17;6.30;;;2.80;;
79410;SDS011;69635;50.964;6.948;2023-08-24T09:35:43;4.78;;;2.58;;
79410;SDS011;69635;50.964;6.948;2023-08-24T09:38:18;6.10;;;2.30;;
79410;SDS011;69635;50.964;6.948;2023-08-24T09:40:45;5.43;;;2.53;;
79410;SDS011;69635;50.964;6.948;2023-08-24T09:43:12;5.32;;;2.00;;
79410;SDS011;69635;50.964;6.948;2023-08-24T09:45:47;8.30;;;2.38;;
79410;SDS011;69635;50.964;6.948;2023-08-24T09:48:14;5.28;;;2.42;;
79410;SDS011;69635;50.964;6.948;2023-08-24T09:50:39;4.18;;;2.53;;
79410;SDS011;69635;50.964;6.948;2023-08-24T09:53:06;3.88;;;2.78;;
79410;SDS011;69635;50.964;6.948;2023-08-24T09:55:36;2.45;;;2.10;;
79410;SDS011;69635;50.964;6.948;2023-08-24T09:58:05;3.97;;;2.30;;
79410;SDS011;69635;50.964;6.948;2023-08-24T10:00:32;3.10;;;2.40;;
79410;SDS011;69635;50.964;6.948;2023-08-24T10:02:57;4.97;;;2.28;;
79410;SDS011;69635;50.964;6.948;2023-08-24T10:05:24;3.88;;;2.38;;
79410;SDS011;69635;50.964;6.948;2023-08-24T10:07:54;2.75;;;1.95;;
79410;SDS011;69635;50.964;6.948;2023-08-24T10:10:21;5.65;;;2.33;;
79410;SDS011;69635;50.964;6.948;2023-08-24T10:12:47;5.68;;;2.30;;
79410;SDS011;69635;50.964;6.948;2023-08-24T10:15:20;6.00;;;2.25;;
79410;SDS011;69635;50.964;6.948;2023-08-24T10:17:48;3.83;;;2.53;;
79410;SDS011;69635;50.964;6.948;2023-08-24T10:20:26;3.80;;;2.25;;
79410;SDS011;69635;50.964;6.948;2023-08-24T10:22:54;3.80;;;2.10;;
79410;SDS011;69635;50.964;6.948;2023-08-24T10:25:21;3.03;;;2.30;;
79410;SDS011;69635;50.964;6.948;2023-08-24T10:27:49;4.70;;;2.45;;
79410;SDS011;69635;50.964;6.948;2023-08-24T10:30:15;4.90;;;2.35;;
79410;SDS011;69635;50.964;6.948;2023-08-24T10:32:43;4.03;;;2.30;;
79410;SDS011;69635;50.964;6.948;2023-08-24T10:35:10;3.95;;;2.63;;
79410;SDS011;69635;50.964;6.948;2023-08-24T10:37:36;4.03;;;2.17;;
79410;SDS011;69635;50.964;6.948;2023-08-24T10:40:40;3.58;;;2.13;;
79410;SDS011;69635;50.964;6.948;2023-08-24T10:43:09;2.90;;;2.08;;
79410;SDS011;69635;50.964;6.948;2023-08-24T10:45:56;4.45;;;2.20;;
79410;SDS011;69635;50.964;6.948;2023-08-24T10:51:16;4.05;;;1.95;;
79410;SDS011;69635;50.964;6.948;2023-08-24T10:53:43;4.20;;;1.90;;
79410;SDS011;69635;50.964;6.948;2023-08-24T10:56:12;4.00;;;2.00;;
79410;SDS011;69635;50.964;6.948;2023-08-24T10:58:38;2.85;;;1.67;;
79410;SDS011;69635;50.964;6.948;2023-08-24T11:01:03;6.20;;;2.13;;
79410;SDS011;69635;50.964;6.948;2023-08-24T11:03:32;6.40;;;2.47;;
79410;SDS011;69635;50.964;6.948;2023-08-24T11:06:00;6.32;;;2.50;;
79410;SDS011;69635;50.964;6.948;2023-08-24T11:08:44;3.53;;;1.60;;
79410;SDS011;69635;50.964;6.948;2023-08-24T11:16:39;5.20;;;2.13;;
79410;SDS011;69635;50.964;6.948;2023-08-24T11:21:36;2.53;;;1.70;;
79410;SDS011;69635;50.964;6.948;2023-08-24T11:24:01;4.70;;;1.85;;
79410;SDS011;69635;50.964;6.948;2023-08-24T11:26:27;6.78;;;1.98;;
79410;SDS011;69635;50.964;6.948;2023-08-24T11:28:56;4.18;;;1.85;;
79410;SDS011;69635;50.964;6.948;2023-08-24T11:31:24;3.83;;;1.80;;
79410;SDS011;69635;50.964;6.948;2023-08-24T11:33:53;3.15;;;2.42;;
79410;SDS011;69635;50.964;6.948;2023-08-24T11:36:28;5.60;;;2.13;;
79410;SDS011;69635;50.964;6.948;2023-08-24T11:38:59;4.80;;;1.88;;
79410;SDS011;69635;50.964;6.948;2023-08-24T11:41:27;4.22;;;2.20;;
79410;SDS011;69635;50.964;6.948;2023-08-24T11:44:04;5.40;;;2.22;;
79410;SDS011;69635;50.964;6.948;2023-08-24T11:47:09;3.78;;;2.10;;
79410;SDS011;69635;50.964;6.948;2023-08-24T11:49:41;3.90;;;1.92;;
79410;SDS011;69635;50.964;6.948;2023-08-24T11:52:08;2.92;;;2.00;;
79410;SDS011;69635;50.964;6.948;2023-08-24T11:54:36;2.92;;;2.03;;
79410;SDS011;69635;50.964;6.948;2023-08-24T11:57:07;5.55;;;2.42;;
79410;SDS011;69635;50.964;6.948;2023-08-24T11:59:36;5.53;;;2.25;;
79410;SDS011;69635;50.964;6.948;2023-08-24T12:02:02;10.95;;;2.50;;
79410;SDS011;69635;50.964;6.948;2023-08-24T12:04:37;4.45;;;2.35;;
79410;SDS011;69635;50.964;6.948;2023-08-24T12:07:08;5.35;;;2.20;;
79410;SDS011;69635;50.964;6.948;2023-08-24T12:09:33;4.65;;;2.50;;
79410;SDS011;69635;50.964;6.948;2023-08-24T12:11:58;3.38;;;2.60;;
79410;SDS011;69635;50.964;6.948;2023-08-24T12:14:24;4.03;;;2.60;;
79410;SDS011;69635;50.964;6.948;2023-08-24T12:16:49;5.80;;;2.45;;
79410;SDS011;69635;50.964;6.948;2023-08-24T12:19:20;4.28;;;2.30;;
79410;SDS011;69635;50.964;6.948;2023-08-24T12:21:49;3.25;;;2.00;;
79410;SDS011;69635;50.964;6.948;2023-08-24T12:24:15;5.25;;;2.60;;
79410;SDS011;69635;50.964;6.948;2023-08-24T12:26:40;5.32;;;3.00;;
79410;SDS011;69635;50.964;6.948;2023-08-24T12:29:07;6.30;;;2.20;;
79410;SDS011;69635;50.964;6.948;2023-08-24T12:31:33;4.22;;;2.30;;
79410;SDS011;69635;50.964;6.948;2023-08-24T12:33:59;5.57;;;2.55;;
79410;SDS011;69635;50.964;6.948;2023-08-24T12:36:24;4.63;;;2.40;;
79410;SDS011;69635;50.964;6.948;2023-08-24T12:38:53;9.00;;;2.73;;
79410;SDS011;69635;50.964;6.948;2023-08-24T12:41:40;6.78;;;2.90;;
79410;SDS011;69635;50.964;6.948;2023-08-24T12:44:05;5.97;;;2.83;;
79410;SDS011;69635;50.964;6.948;2023-08-24T12:46:35;5.25;;;3.00;;
79410;SDS011;69635;50.964;6.948;2023-08-24T12:49:17;8.55;;;3.10;;
79410;SDS011;69635;50.964;6.948;2023-08-24T12:51:42;6.30;;;3.63;;
79410;SDS011;69635;50.964;6.948;2023-08-24T12:54:11;5.07;;;3.05;;
79410;SDS011;69635;50.964;6.948;2023-08-24T12:56:38;6.97;;;3.00;;
79410;SDS011;69635;50.964;6.948;2023-08-24T12:59:03;8.77;;;3.13;;
79410;SDS011;69635;50.964;6.948;2023-08-24T13:01:29;5.57;;;3.10;;
79410;SDS011;69635;50.964;6.948;2023-08-24T13:03:54;7.13;;;3.00;;
79410;SDS011;69635;50.964;6.948;2023-08-24T13:09:29;5.00;;;2.67;;
79410;SDS011;69635;50.964;6.948;2023-08-24T13:11:54;5.80;;;2.75;;
79410;SDS011;69635;50.964;6.948;2023-08-24T13:14:20;7.90;;;3.15;;
79410;SDS011;69635;50.964;6.948;2023-08-24T13:16:45;6.15;;;2.95;;
79410;SDS011;69635;50.964;6.948;2023-08-24T13:19:11;8.27;;;2.90;;
79410;SDS011;69635;50.964;6.948;2023-08-24T13:21:36;7.63;;;2.43;;
79410;SDS011;69635;50.964;6.948;2023-08-24T13:24:01;6.63;;;2.83;;
79410;SDS011;69635;50.964;6.948;2023-08-24T13:26:27;5.93;;;2.90;;
79410;SDS011;69635;50.964;6.948;2023-08-24T13:28:52;4.07;;;2.35;;
79410;SDS011;69635;50.964;6.948;2023-08-24T13:31:17;7.78;;;2.30;;
79410;SDS011;69635;50.964;6.948;2023-08-24T13:33:44;6.25;;;2.80;;
79410;SDS011;69635;50.964;6.948;2023-08-24T13:36:09;9.45;;;2.70;;
79410;SDS011;69635;50.964;6.948;2023-08-24T13:38:34;11.30;;;3.07;;
79410;SDS011;69635;50.964;6.948;2023-08-24T13:41:00;6.53;;;2.53;;
79410;SDS011;69635;50.964;6.948;2023-08-24T13:43:25;7.00;;;2.93;;
79410;SDS011;69635;50.964;6.948;2023-08-24T13:45:50;5.37;;;2.67;;
79410;SDS011;69635;50.964;6.948;2023-08-24T13:48:16;5.20;;;2.42;;
79410;SDS011;69635;50.964;6.948;2023-08-24T13:50:41;3.78;;;2.15;;
79410;SDS011;69635;50.964;6.948;2023-08-24T13:53:07;3.85;;;2.10;;
79410;SDS011;69635;50.964;6.948;2023-08-24T13:55:32;4.20;;;2.03;;
79410;SDS011;69635;50.964;6.948;2023-08-24T13:57:57;3.90;;;1.73;;
79410;SDS011;69635;50.964;6.948;2023-08-24T14:00:23;2.50;;;2.08;;
79410;SDS011;69635;50.964;6.948;2023-08-24T14:02:48;4.57;;;2.30;;
79410;SDS011;69635;50.964;6.948;2023-08-24T14:05:14;7.18;;;3.13;;
79410;SDS011;69635;50.964;6.948;2023-08-24T14:07:39;5.90;;;2.50;;
79410;SDS011;69635;50.964;6.948;2023-08-24T14:10:04;4.55;;;2.28;;
79410;SDS011;69635;50.964;6.948;2023-08-24T14:12:31;5.35;;;2.10;;
79410;SDS011;69635;50.964;6.948;2023-08-24T14:14:56;5.73;;;2.97;;
79410;SDS011;69635;50.964;6.948;2023-08-24T14:17:22;5.70;;;2.65;;
79410;SDS011;69635;50.964;6.948;2023-08-24T14:19:47;6.07;;;2.20;;
79410;SDS011;69635;50.964;6.948;2023-08-24T14:22:13;4.00;;;2.33;;
79410;SDS011;69635;50.964;6.948;2023-08-24T14:24:38;3.40;;;2.30;;
79410;SDS011;69635;50.964;6.948;2023-08-24T14:27:04;6.70;;;2.20;;
79410;SDS011;69635;50.964;6.948;2023-08-24T14:29:29;7.43;;;2.60;;
79410;SDS011;69635;50.964;6.948;2023-08-24T14:31:54;5.60;;;2.50;;
79410;SDS011;69635;50.964;6.948;2023-08-24T14:34:21;6.85;;;2.75;;
79410;SDS011;69635;50.964;6.948;2023-08-24T14:36:46;6.25;;;2.28;;
79410;SDS011;69635;50.964;6.948;2023-08-24T14:39:12;5.20;;;2.25;;
79410;SDS011;69635;50.964;6.948;2023-08-24T14:41:38;3.65;;;2.15;;
79410;SDS011;69635;50.964;6.948;2023-08-24T14:44:13;4.90;;;1.90;;
79410;SDS011;69635;50.964;6.948;2023-08-24T14:46:39;4.93;;;2.25;;
79410;SDS011;69635;50.964;6.948;2023-08-24T14:49:04;4.78;;;2.28;;
79410;SDS011;69635;50.964;6.948;2023-08-24T14:51:33;4.78;;;2.13;;
79410;SDS011;69635;50.964;6.948;2023-08-24T14:53:58;4.10;;;2.00;;
79410;SDS011;69635;50.964;6.948;2023-08-24T14:56:24;3.40;;;2.35;;
79410;SDS011;69635;50.964;6.948;2023-08-24T14:58:49;5.90;;;2.40;;
79410;SDS011;69635;50.964;6.948;2023-08-24T15:01:22;6.28;;;2.30;;
79410;SDS011;69635;50.964;6.948;2023-08-24T15:03:47;6.97;;;2.22;;
79410;SDS011;69635;50.964;6.948;2023-08-24T15:06:12;4.33;;;2.43;;
79410;SDS011;69635;50.964;6.948;2023-08-24T15:08:40;5.95;;;2.05;;
79410;SDS011;69635;50.964;6.948;2023-08-24T15:11:06;5.35;;;2.38;;
79410;SDS011;69635;50.964;6.948;2023-08-24T15:13:31;10.17;;;2.90;;
79410;SDS011;69635;50.964;6.948;2023-08-24T15:15:57;5.20;;;2.33;;
79410;SDS011;69635;50.964;6.948;2023-08-24T15:18:23;7.22;;;4.05;;
79410;SDS011;69635;50.964;6.948;2023-08-24T15:20:48;8.18;;;3.25;;
79410;SDS011;69635;50.964;6.948;2023-08-24T15:23:22;7.75;;;2.22;;
79410;SDS011;69635;50.964;6.948;2023-08-24T15:25:52;3.70;;;1.70;;
79410;SDS011;69635;50.964;6.948;2023-08-24T15:28:17;4.25;;;1.75;;